Time;durP1;ratioP1;P1;durP2;ratioP2;P2;SDS_P1;SDS_P2;PMS_P1;PMS_P2;Temp;Humidity;BMP_temperature;BMP_pressure;BME280_temperature;BME280_humidity;BME280_pressure;Samples;Min_cycle;Max_cycle;Signal;HPM_P1;HPM_P2
2023/06/13 00:00:10;;;;;;;4.18;1.70;;;;;;;;;;5053965;28;20025;-76
2023/06/13 00:02:37;;;;;;;3.20;1.52;;;;;;;;;;5055097;28;20036;-79
2023/06/13 00:05:10;;;;;;;3.15;1.65;;;;;;;;;;5057556;28;20304;-73
2023/06/13 00:07:37;;;;;;;6.38;2.00;;;;;;;;;;5056035;28;20063;-81
2023/06/13 00:10:06;;;;;;;3.13;1.58;;;;;;;;;;5051653;28;20501;-74
2023/06/13 00:12:34;;;;;;;3.73;1.60;;;;;;;;;;5050681;28;20589;-73
2023/06/13 00:15:01;;;;;;;2.70;1.50;;;;;;;;;;5057360;28;20033;-80
2023/06/13 00:17:29;;;;;;;4.78;1.70;;;;;;;;;;5054062;28;20029;-74
2023/06/13 00:19:55;;;;;;;2.90;1.60;;;;;;;;;;5060122;28;20033;-78
2023/06/13 00:22:21;;;;;;;2.30;1.63;;;;;;;;;;5051254;28;20036;-75
2023/06/13 00:24:47;;;;;;;3.10;1.67;;;;;;;;;;5051054;28;20028;-75
2023/06/13 00:27:12;;;;;;;2.58;1.70;;;;;;;;;;5051512;28;20155;-73
2023/06/13 00:29:38;;;;;;;5.43;1.90;;;;;;;;;;5051967;28;20507;-74
2023/06/13 00:32:03;;;;;;;4.50;1.80;;;;;;;;;;5050998;28;20432;-79
2023/06/13 00:34:29;;;;;;;3.20;1.80;;;;;;;;;;5054841;28;20049;-73
2023/06/13 00:36:55;;;;;;;3.75;1.73;;;;;;;;;;5051844;28;20108;-77
2023/06/13 00:39:21;;;;;;;3.67;1.88;;;;;;;;;;5053250;28;20025;-73
2023/06/13 00:41:46;;;;;;;2.42;1.63;;;;;;;;;;5054454;28;20044;-76
2023/06/13 00:44:14;;;;;;;3.35;1.90;;;;;;;;;;5057943;28;20087;-80
2023/06/13 00:46:41;;;;;;;3.15;1.77;;;;;;;;;;5054386;28;20358;-73
2023/06/13 00:49:08;;;;;;;2.33;1.63;;;;;;;;;;5054609;28;20029;-76
2023/06/13 00:51:36;;;;;;;2.63;1.80;;;;;;;;;;5051844;28;20036;-73
2023/06/13 00:54:03;;;;;;;2.83;1.80;;;;;;;;;;5054430;28;20504;-73
2023/06/13 00:56:29;;;;;;;3.97;1.77;;;;;;;;;;5049936;28;20037;-74
2023/06/13 00:59:03;;;;;;;3.08;1.90;;;;;;;;;;5051908;28;20500;-73
2023/06/13 01:01:28;;;;;;;4.07;1.88;;;;;;;;;;5053218;28;20024;-73
2023/06/13 01:03:55;;;;;;;7.80;2.20;;;;;;;;;;5052155;28;20060;-74
2023/06/13 01:06:24;;;;;;;4.68;1.65;;;;;;;;;;5049520;28;20021;-73
2023/06/13 01:08:52;;;;;;;3.80;1.90;;;;;;;;;;5053857;28;20024;-76
2023/06/13 01:11:44;;;;;;;3.65;1.95;;;;;;;;;;5059022;28;20029;-75
2023/06/13 01:14:35;;;;;;;2.90;1.77;;;;;;;;;;5056785;28;20586;-74
2023/06/13 01:17:17;;;;;;;3.38;2.08;;;;;;;;;;5050282;28;20033;-74
2023/06/13 01:19:49;;;;;;;4.80;2.38;;;;;;;;;;5054063;28;20036;-74
2023/06/13 01:22:22;;;;;;;5.25;2.50;;;;;;;;;;5055508;28;20032;-73
2023/06/13 01:25:00;;;;;;;5.50;2.30;;;;;;;;;;5052329;28;20473;-77
2023/06/13 01:27:27;;;;;;;4.03;2.53;;;;;;;;;;5051490;28;20048;-72
2023/06/13 01:29:54;;;;;;;4.00;2.20;;;;;;;;;;5050386;28;20500;-75
2023/06/13 01:32:22;;;;;;;5.80;2.67;;;;;;;;;;5052740;28;20505;-73
2023/06/13 01:34:49;;;;;;;6.30;2.20;;;;;;;;;;5053572;28;20027;-74
2023/06/13 01:37:18;;;;;;;5.03;2.30;;;;;;;;;;5054739;28;20112;-79
2023/06/13 01:39:43;;;;;;;3.88;2.20;;;;;;;;;;5049222;28;20043;-79
2023/06/13 01:42:09;;;;;;;4.13;2.17;;;;;;;;;;5051379;28;20025;-74
2023/06/13 01:44:35;;;;;;;4.75;2.20;;;;;;;;;;5051303;28;20021;-74
2023/06/13 01:47:22;;;;;;;4.28;2.47;;;;;;;;;;5052133;28;20032;-73
2023/06/13 01:49:54;;;;;;;5.60;2.30;;;;;;;;;;5051895;28;20025;-75
2023/06/13 01:52:25;;;;;;;5.28;1.88;;;;;;;;;;5049176;28;20091;-78
2023/06/13 01:55:00;;;;;;;4.25;2.00;;;;;;;;;;5055898;28;20040;-75
2023/06/13 01:57:30;;;;;;;2.95;1.90;;;;;;;;;;5049153;28;20418;-73
2023/06/13 01:59:56;;;;;;;3.80;1.83;;;;;;;;;;5055012;28;20025;-74
2023/06/13 02:02:23;;;;;;;4.65;1.85;;;;;;;;;;5051980;28;20029;-74
2023/06/13 02:04:49;;;;;;;4.68;1.83;;;;;;;;;;5054649;28;20029;-77
2023/06/13 02:07:15;;;;;;;3.78;2.00;;;;;;;;;;5051730;28;20084;-75
2023/06/13 02:09:41;;;;;;;5.18;2.10;;;;;;;;;;5049368;28;20094;-75
2023/06/13 02:12:07;;;;;;;4.18;2.15;;;;;;;;;;5053203;28;20058;-77
2023/06/13 02:14:32;;;;;;;3.03;1.90;;;;;;;;;;5054486;28;20028;-83
2023/06/13 02:17:01;;;;;;;3.90;1.83;;;;;;;;;;5051267;28;20043;-82
2023/06/13 02:19:26;;;;;;;3.63;1.77;;;;;;;;;;5052087;28;20070;-83
2023/06/13 02:21:52;;;;;;;5.10;2.03;;;;;;;;;;5053287;28;20028;-76
2023/06/13 02:24:21;;;;;;;3.22;1.90;;;;;;;;;;5054710;28;20136;-77
2023/06/13 02:26:46;;;;;;;4.28;1.98;;;;;;;;;;5049621;28;20017;-74
2023/06/13 02:29:12;;;;;;;3.55;1.80;;;;;;;;;;5052134;28;20163;-76
2023/06/13 02:31:40;;;;;;;3.45;1.80;;;;;;;;;;5055902;28;20325;-75
2023/06/13 02:34:06;;;;;;;3.65;2.00;;;;;;;;;;5051158;28;20456;-78
2023/06/13 02:36:31;;;;;;;2.95;1.90;;;;;;;;;;5051087;28;20128;-73
2023/06/13 02:38:56;;;;;;;3.25;2.00;;;;;;;;;;5051537;28;20036;-77
2023/06/13 02:41:22;;;;;;;4.60;1.70;;;;;;;;;;5051678;28;20055;-80
2023/06/13 02:43:47;;;;;;;4.40;2.10;;;;;;;;;;5050611;28;20082;-74
2023/06/13 02:46:13;;;;;;;5.47;1.90;;;;;;;;;;5052103;28;20017;-74
2023/06/13 02:48:39;;;;;;;3.80;2.05;;;;;;;;;;5055354;28;20059;-78
2023/06/13 02:51:07;;;;;;;3.65;2.03;;;;;;;;;;5053557;28;20059;-73
2023/06/13 02:53:33;;;;;;;3.20;2.08;;;;;;;;;;5048334;28;20061;-76
2023/06/13 02:55:58;;;;;;;3.70;2.25;;;;;;;;;;5050291;28;20071;-78
2023/06/13 02:58:24;;;;;;;4.20;2.20;;;;;;;;;;5056182;28;20025;-74
2023/06/13 03:00:52;;;;;;;3.67;2.30;;;;;;;;;;5050385;28;20028;-74
2023/06/13 03:03:18;;;;;;;6.00;2.30;;;;;;;;;;5052024;28;20210;-73
2023/06/13 03:05:47;;;;;;;7.00;2.22;;;;;;;;;;5053418;28;20355;-74
2023/06/13 03:08:18;;;;;;;3.58;2.28;;;;;;;;;;5056318;28;20028;-79
2023/06/13 03:10:44;;;;;;;4.75;2.42;;;;;;;;;;5052080;28;20025;-76
2023/06/13 03:13:09;;;;;;;5.03;2.40;;;;;;;;;;5054253;28;20282;-73
2023/06/13 03:15:35;;;;;;;3.55;2.20;;;;;;;;;;5050513;28;20504;-73
2023/06/13 03:18:00;;;;;;;7.00;2.25;;;;;;;;;;5033283;28;20061;-75
2023/06/13 03:20:26;;;;;;;4.45;2.13;;;;;;;;;;5034857;28;20097;-75
2023/06/13 03:22:51;;;;;;;3.67;2.40;;;;;;;;;;5035997;28;20025;-74
2023/06/13 03:25:18;;;;;;;3.72;2.10;;;;;;;;;;5037296;28;20021;-76
2023/06/13 03:27:43;;;;;;;4.75;2.20;;;;;;;;;;5041087;28;20033;-74
2023/06/13 03:30:09;;;;;;;5.50;2.38;;;;;;;;;;5037011;28;20112;-77
2023/06/13 03:32:36;;;;;;;3.90;2.45;;;;;;;;;;5035298;28;20022;-73
2023/06/13 03:35:01;;;;;;;6.10;2.30;;;;;;;;;;5033311;28;20033;-73
2023/06/13 03:37:27;;;;;;;6.32;2.33;;;;;;;;;;5035271;28;20121;-75
2023/06/13 03:39:52;;;;;;;7.32;2.58;;;;;;;;;;5035290;28;20036;-81
2023/06/13 03:42:17;;;;;;;6.30;2.55;;;;;;;;;;5032059;28;20035;-76
2023/06/13 03:44:46;;;;;;;4.85;2.55;;;;;;;;;;5033187;28;20030;-73
2023/06/13 03:47:12;;;;;;;3.10;2.20;;;;;;;;;;5034859;28;20040;-78
2023/06/13 03:49:38;;;;;;;3.78;2.22;;;;;;;;;;5035599;28;20033;-75
2023/06/13 03:52:04;;;;;;;5.07;2.80;;;;;;;;;;5034789;28;20322;-76
2023/06/13 03:54:29;;;;;;;5.47;2.60;;;;;;;;;;5039543;28;20106;-74
2023/06/13 03:56:55;;;;;;;3.95;2.28;;;;;;;;;;5033046;28;20445;-75
2023/06/13 03:59:20;;;;;;;5.85;2.60;;;;;;;;;;5034753;28;20026;-77
2023/06/13 04:01:46;;;;;;;4.93;2.78;;;;;;;;;;5049438;28;20469;-81
2023/06/13 04:04:11;;;;;;;6.45;2.78;;;;;;;;;;5035920;28;20025;-75
2023/06/13 04:06:37;;;;;;;6.28;2.90;;;;;;;;;;5039786;28;20395;-76
2023/06/13 04:09:05;;;;;;;4.60;2.60;;;;;;;;;;5034294;28;20104;-74
2023/06/13 04:11:31;;;;;;;6.90;2.38;;;;;;;;;;5035713;28;20088;-73
2023/06/13 04:13:57;;;;;;;6.10;2.65;;;;;;;;;;5034668;28;20037;-74
2023/06/13 04:16:22;;;;;;;4.05;2.40;;;;;;;;;;5033124;28;20084;-73
2023/06/13 04:18:48;;;;;;;6.97;2.65;;;;;;;;;;5039532;28;20269;-74
2023/06/13 04:21:14;;;;;;;5.68;2.65;;;;;;;;;;5040162;28;20033;-77
2023/06/13 04:23:39;;;;;;;5.63;2.72;;;;;;;;;;5033527;28;20128;-74
2023/06/13 04:26:05;;;;;;;8.20;3.08;;;;;;;;;;5048590;28;20099;-74
2023/06/13 04:28:32;;;;;;;7.68;3.10;;;;;;;;;;5032781;28;20040;-77
2023/06/13 04:30:57;;;;;;;4.43;2.90;;;;;;;;;;5034365;28;20040;-73
2023/06/13 04:33:24;;;;;;;5.03;2.67;;;;;;;;;;5034148;28;20031;-74
2023/06/13 04:35:49;;;;;;;4.35;2.50;;;;;;;;;;5034872;28;20025;-78
2023/06/13 04:38:18;;;;;;;7.78;2.78;;;;;;;;;;5036773;28;20261;-74
2023/06/13 04:40:44;;;;;;;5.22;2.53;;;;;;;;;;5039456;28;20038;-74
2023/06/13 04:43:09;;;;;;;4.47;2.75;;;;;;;;;;5032389;28;20033;-77
2023/06/13 04:45:36;;;;;;;3.65;2.55;;;;;;;;;;5032961;28;20047;-75
2023/06/13 04:48:03;;;;;;;6.60;2.70;;;;;;;;;;5033075;28;20615;-76
2023/06/13 04:50:28;;;;;;;7.60;2.60;;;;;;;;;;5036286;28;20101;-73
2023/06/13 04:52:55;;;;;;;6.63;2.88;;;;;;;;;;5034299;28;20057;-75
2023/06/13 04:55:25;;;;;;;5.47;2.67;;;;;;;;;;5031148;28;20044;-74
2023/06/13 04:57:51;;;;;;;6.70;2.27;;;;;;;;;;5030652;28;20045;-79
2023/06/13 05:00:18;;;;;;;7.68;2.33;;;;;;;;;;5047727;28;20118;-78
2023/06/13 05:02:45;;;;;;;3.53;2.20;;;;;;;;;;5033219;28;20195;-75
2023/06/13 05:05:10;;;;;;;5.50;2.05;;;;;;;;;;5032420;28;20088;-74
2023/06/13 05:07:39;;;;;;;6.05;2.47;;;;;;;;;;5035530;28;20029;-77
2023/06/13 05:10:05;;;;;;;6.63;2.38;;;;;;;;;;5036302;28;20021;-73
2023/06/13 05:12:30;;;;;;;4.22;2.38;;;;;;;;;;5034276;28;20107;-80
2023/06/13 05:14:56;;;;;;;3.90;2.30;;;;;;;;;;5038054;28;20025;-78
2023/06/13 05:17:21;;;;;;;6.00;2.17;;;;;;;;;;5034738;28;20373;-73
2023/06/13 05:19:47;;;;;;;3.38;2.30;;;;;;;;;;5033487;28;20025;-74
2023/06/13 05:22:13;;;;;;;7.75;2.40;;;;;;;;;;5052069;28;20025;-73
2023/06/13 05:24:38;;;;;;;5.28;2.40;;;;;;;;;;5036242;28;20030;-73
2023/06/13 05:27:04;;;;;;;5.38;2.30;;;;;;;;;;5035395;28;20029;-74
2023/06/13 05:29:29;;;;;;;4.13;2.42;;;;;;;;;;5030720;28;20060;-78
2023/06/13 05:32:03;;;;;;;5.78;2.30;;;;;;;;;;5033498;28;20025;-82
2023/06/13 05:34:29;;;;;;;6.38;2.22;;;;;;;;;;5032660;28;20057;-77
2023/06/13 05:36:57;;;;;;;5.60;2.63;;;;;;;;;;5039971;28;20256;-78
2023/06/13 05:39:23;;;;;;;6.85;2.22;;;;;;;;;;5038674;28;20133;-88
2023/06/13 05:41:48;;;;;;;7.72;2.58;;;;;;;;;;5040107;28;20267;-72
2023/06/13 05:44:13;;;;;;;5.55;2.63;;;;;;;;;;5048040;28;20123;-71
2023/06/13 05:46:39;;;;;;;6.72;2.05;;;;;;;;;;5029394;28;20520;-74
2023/06/13 05:49:05;;;;;;;5.07;2.25;;;;;;;;;;5037020;28;20032;-71
2023/06/13 05:51:31;;;;;;;5.88;2.20;;;;;;;;;;5047047;28;20128;-72
2023/06/13 05:53:57;;;;;;;3.70;2.30;;;;;;;;;;5031000;28;20040;-71
2023/06/13 05:56:22;;;;;;;4.35;2.40;;;;;;;;;;5037351;28;20053;-71
2023/06/13 05:58:47;;;;;;;8.18;2.95;;;;;;;;;;5039770;28;20021;-73
2023/06/13 06:01:13;;;;;;;6.07;2.53;;;;;;;;;;5040266;28;20101;-72
2023/06/13 06:03:38;;;;;;;7.53;2.65;;;;;;;;;;5040414;28;20298;-71
2023/06/13 06:06:04;;;;;;;8.80;3.00;;;;;;;;;;5037434;28;20033;-72
2023/06/13 06:08:30;;;;;;;6.22;2.78;;;;;;;;;;5040375;28;20187;-71
2023/06/13 06:10:55;;;;;;;9.57;2.90;;;;;;;;;;5055537;28;20056;-71
2023/06/13 06:13:23;;;;;;;8.52;2.70;;;;;;;;;;5039789;28;20029;-71
2023/06/13 06:15:49;;;;;;;6.03;2.60;;;;;;;;;;5040383;28;20048;-71
2023/06/13 06:18:14;;;;;;;5.45;2.70;;;;;;;;;;5040041;28;20029;-72
2023/06/13 06:20:40;;;;;;;10.02;2.75;;;;;;;;;;5056046;28;20035;-71
2023/06/13 06:23:06;;;;;;;7.10;2.40;;;;;;;;;;5038947;28;20064;-72
2023/06/13 06:25:34;;;;;;;3.50;2.20;;;;;;;;;;5038736;28;20030;-73
2023/06/13 06:28:01;;;;;;;9.57;2.80;;;;;;;;;;5039518;28;20029;-73
2023/06/13 06:30:28;;;;;;;6.10;2.60;;;;;;;;;;5054516;28;20379;-80
2023/06/13 06:32:55;;;;;;;4.75;2.70;;;;;;;;;;5038639;28;20101;-73
2023/06/13 06:35:20;;;;;;;6.22;2.38;;;;;;;;;;5040001;28;20021;-72
2023/06/13 06:37:46;;;;;;;5.03;2.28;;;;;;;;;;5039850;28;20356;-73
2023/06/13 06:40:12;;;;;;;6.80;2.72;;;;;;;;;;5040001;28;20209;-72
2023/06/13 06:42:37;;;;;;;4.78;2.50;;;;;;;;;;5038047;28;20033;-72
2023/06/13 06:45:03;;;;;;;7.35;2.30;;;;;;;;;;5039025;28;20021;-72
2023/06/13 06:47:30;;;;;;;6.35;2.63;;;;;;;;;;5039687;28;20021;-74
2023/06/13 06:49:55;;;;;;;8.00;2.75;;;;;;;;;;5039785;28;20048;-72
2023/06/13 06:52:20;;;;;;;6.38;2.63;;;;;;;;;;5042626;28;20050;-71
2023/06/13 06:54:46;;;;;;;5.32;2.50;;;;;;;;;;5043811;28;20310;-74
2023/06/13 06:57:12;;;;;;;4.20;2.40;;;;;;;;;;5043571;28;20021;-74
2023/06/13 06:59:37;;;;;;;6.85;2.70;;;;;;;;;;5051734;28;20115;-72
2023/06/13 07:02:03;;;;;;;9.52;2.80;;;;;;;;;;5082449;28;20267;-71
2023/06/13 07:04:29;;;;;;;6.32;3.20;;;;;;;;;;5073492;28;20224;-71
2023/06/13 07:06:55;;;;;;;7.47;2.38;;;;;;;;;;5081995;28;20079;-72
2023/06/13 07:09:20;;;;;;;8.60;3.15;;;;;;;;;;5080364;28;20216;-69
2023/06/13 07:11:46;;;;;;;9.15;3.10;;;;;;;;;;5081158;28;20032;-69
2023/06/13 07:14:12;;;;;;;4.78;3.08;;;;;;;;;;5081837;28;20040;-70
2023/06/13 07:16:37;;;;;;;5.50;2.97;;;;;;;;;;5075321;28;20375;-71
2023/06/13 07:19:02;;;;;;;5.53;2.45;;;;;;;;;;5075715;28;20028;-70
2023/06/13 07:21:28;;;;;;;5.70;2.55;;;;;;;;;;5081604;28;20082;-76
2023/06/13 07:23:54;;;;;;;9.38;2.50;;;;;;;;;;5082436;28;20095;-77
2023/06/13 07:26:21;;;;;;;5.60;2.00;;;;;;;;;;5082893;28;20028;-73
2023/06/13 07:28:47;;;;;;;3.50;2.03;;;;;;;;;;5082568;28;20031;-71
2023/06/13 07:31:12;;;;;;;3.97;2.00;;;;;;;;;;5079571;28;20056;-70
2023/06/13 07:33:37;;;;;;;5.55;2.03;;;;;;;;;;5076729;28;20096;-69
2023/06/13 07:36:03;;;;;;;4.22;1.83;;;;;;;;;;5041418;28;20221;-70
2023/06/13 07:38:32;;;;;;;3.20;1.55;;;;;;;;;;5039547;28;20056;-72
2023/06/13 07:40:57;;;;;;;7.25;2.03;;;;;;;;;;5040210;28;20025;-72
2023/06/13 07:43:23;;;;;;;10.52;1.83;;;;;;;;;;5039407;28;20025;-71
2023/06/13 07:45:48;;;;;;;4.13;1.45;;;;;;;;;;5040282;28;20044;-71
2023/06/13 07:48:13;;;;;;;12.45;1.90;;;;;;;;;;5041588;28;20081;-75
2023/06/13 07:50:41;;;;;;;14.63;1.70;;;;;;;;;;5058088;28;20067;-71
2023/06/13 07:53:08;;;;;;;34.42;4.57;;;;;;;;;;5036765;28;20116;-70
2023/06/13 07:55:33;;;;;;;2.80;1.50;;;;;;;;;;5040628;28;20030;-72
2023/06/13 07:57:59;;;;;;;13.60;2.25;;;;;;;;;;5042620;28;20032;-71
2023/06/13 08:00:24;;;;;;;12.15;2.05;;;;;;;;;;5042587;28;20040;-70
2023/06/13 08:02:50;;;;;;;3.45;1.70;;;;;;;;;;5039167;28;20550;-70
2023/06/13 08:05:16;;;;;;;8.05;1.90;;;;;;;;;;5041562;28;20034;-71
2023/06/13 08:07:41;;;;;;;7.45;1.98;;;;;;;;;;5041542;28;20136;-71
2023/06/13 08:10:07;;;;;;;8.82;1.80;;;;;;;;;;5046355;28;20087;-72
2023/06/13 08:12:33;;;;;;;3.92;1.80;;;;;;;;;;5059188;28;20100;-71
2023/06/13 08:14:59;;;;;;;3.92;2.00;;;;;;;;;;5041988;28;20311;-71
2023/06/13 08:17:24;;;;;;;6.18;2.35;;;;;;;;;;5047777;28;20024;-70
2023/06/13 08:19:50;;;;;;;4.40;2.22;;;;;;;;;;5061939;28;20029;-70
2023/06/13 08:22:17;;;;;;;4.53;2.20;;;;;;;;;;5061919;28;20331;-70
2023/06/13 08:24:42;;;;;;;3.85;2.00;;;;;;;;;;5062045;28;20021;-70
2023/06/13 08:27:10;;;;;;;4.93;2.30;;;;;;;;;;5046885;28;20103;-75
2023/06/13 08:29:35;;;;;;;3.10;2.10;;;;;;;;;;5041846;28;20033;-72
2023/06/13 08:32:01;;;;;;;4.57;2.28;;;;;;;;;;5041979;28;20036;-71
2023/06/13 08:34:26;;;;;;;3.72;2.30;;;;;;;;;;5040578;28;20049;-74
2023/06/13 08:36:51;;;;;;;3.58;2.10;;;;;;;;;;5041778;28;20067;-73
2023/06/13 08:39:17;;;;;;;5.07;2.50;;;;;;;;;;5041661;28;20019;-74
2023/06/13 08:41:43;;;;;;;4.78;2.20;;;;;;;;;;5041868;28;20159;-73
2023/06/13 08:44:09;;;;;;;5.57;2.63;;;;;;;;;;5039591;28;20064;-74
2023/06/13 08:46:36;;;;;;;3.88;2.65;;;;;;;;;;5041206;28;20424;-75
2023/06/13 08:49:05;;;;;;;6.40;2.30;;;;;;;;;;5039694;28;20352;-75
2023/06/13 08:51:31;;;;;;;6.25;2.35;;;;;;;;;;5041381;28;20100;-74
2023/06/13 08:54:02;;;;;;;5.20;2.65;;;;;;;;;;5040683;28;20029;-73
2023/06/13 08:56:32;;;;;;;4.60;2.20;;;;;;;;;;5040552;28;20021;-74
2023/06/13 08:59:03;;;;;;;4.93;2.28;;;;;;;;;;5040882;28;20209;-71
2023/06/13 09:01:29;;;;;;;3.55;2.40;;;;;;;;;;5039814;28;20030;-72
2023/06/13 09:03:57;;;;;;;8.95;2.50;;;;;;;;;;5041341;28;20104;-72
2023/06/13 09:06:23;;;;;;;3.95;2.45;;;;;;;;;;5041182;28;20277;-72
2023/06/13 09:08:50;;;;;;;3.63;2.30;;;;;;;;;;5041194;28;20094;-73
2023/06/13 09:11:16;;;;;;;5.20;2.40;;;;;;;;;;5041012;28;20036;-72
2023/06/13 09:13:44;;;;;;;3.40;2.33;;;;;;;;;;5033353;28;20037;-73
2023/06/13 09:16:10;;;;;;;3.85;2.35;;;;;;;;;;5040376;28;20033;-73
2023/06/13 09:18:38;;;;;;;4.90;2.50;;;;;;;;;;5040604;28;20033;-73
2023/06/13 09:21:04;;;;;;;3.30;2.42;;;;;;;;;;5040695;28;20036;-74
2023/06/13 09:23:30;;;;;;;4.22;2.58;;;;;;;;;;5040353;28;20033;-73
2023/06/13 09:25:58;;;;;;;5.70;2.58;;;;;;;;;;5041419;28;20044;-73
2023/06/13 09:28:42;;;;;;;6.40;3.00;;;;;;;;;;5039904;28;20167;-72
2023/06/13 09:31:08;;;;;;;3.75;2.55;;;;;;;;;;5040418;28;20087;-70
2023/06/13 09:33:37;;;;;;;3.88;2.50;;;;;;;;;;5043496;28;20320;-72
2023/06/13 09:36:07;;;;;;;3.80;2.40;;;;;;;;;;5060703;28;20087;-73
2023/06/13 09:38:42;;;;;;;168.10;7.93;;;;;;;;;;5060193;28;20033;-74
2023/06/13 09:41:12;;;;;;;1.88;1.10;;;;;;;;;;5059829;28;20346;-80
2023/06/13 09:43:38;;;;;;;1.92;0.98;;;;;;;;;;5060507;28;20037;-73
2023/06/13 09:46:04;;;;;;;1.38;0.90;;;;;;;;;;5060500;28;20142;-74
2023/06/13 09:48:29;;;;;;;1.60;1.10;;;;;;;;;;5060387;28;20020;-73
2023/06/13 09:50:55;;;;;;;11.85;1.33;;;;;;;;;;5060287;28;20033;-73
2023/06/13 09:53:21;;;;;;;4.10;1.10;;;;;;;;;;5060142;28;20044;-73
2023/06/13 09:55:49;;;;;;;1.55;0.80;;;;;;;;;;5060501;28;20110;-75
2023/06/13 09:58:15;;;;;;;1.75;0.93;;;;;;;;;;5060670;28;20016;-73
2023/06/13 10:00:41;;;;;;;1.75;1.20;;;;;;;;;;5060424;28;20083;-71
2023/06/13 10:03:07;;;;;;;1.05;0.73;;;;;;;;;;5060493;28;20093;-71
2023/06/13 10:05:32;;;;;;;2.63;1.00;;;;;;;;;;5060531;28;20029;-71
2023/06/13 10:07:57;;;;;;;3.42;1.52;;;;;;;;;;5060406;28;20025;-71
2023/06/13 10:10:23;;;;;;;2.70;0.88;;;;;;;;;;5060247;28;20017;-78
2023/06/13 10:12:51;;;;;;;1.42;1.10;;;;;;;;;;5060418;28;20025;-71
2023/06/13 10:15:31;;;;;;;2.00;1.20;;;;;;;;;;5059899;28;20412;-72
2023/06/13 10:18:00;;;;;;;1.73;0.90;;;;;;;;;;5060346;28;20111;-71
2023/06/13 10:20:28;;;;;;;1.88;1.17;;;;;;;;;;5059900;28;20060;-76
2023/06/13 10:22:56;;;;;;;4.45;1.30;;;;;;;;;;5060027;28;20333;-74
2023/06/13 10:25:26;;;;;;;1.70;1.10;;;;;;;;;;5061989;28;20096;-72
2023/06/13 10:27:55;;;;;;;1.30;1.00;;;;;;;;;;5064311;28;20305;-72
2023/06/13 10:30:36;;;;;;;4.03;1.10;;;;;;;;;;5064235;28;20244;-72
2023/06/13 10:33:28;;;;;;;1.52;1.08;;;;;;;;;;5064023;28;20033;-71
2023/06/13 10:36:16;;;;;;;2.08;1.00;;;;;;;;;;5047883;28;20036;-72
2023/06/13 10:38:59;;;;;;;1.38;1.00;;;;;;;;;;5063697;28;20132;-73
2023/06/13 10:42:01;;;;;;;1.52;0.90;;;;;;;;;;5063644;28;20035;-72
2023/06/13 10:44:55;;;;;;;1.30;0.90;;;;;;;;;;5063768;28;20104;-72
2023/06/13 10:47:22;;;;;;;1.20;0.85;;;;;;;;;;5063648;28;20326;-73
2023/06/13 10:49:49;;;;;;;1.77;0.90;;;;;;;;;;5063427;28;20074;-69
2023/06/13 10:52:17;;;;;;;1.15;0.70;;;;;;;;;;5063165;28;20113;-71
2023/06/13 10:54:48;;;;;;;3.33;1.00;;;;;;;;;;5063786;28;20024;-69
2023/06/13 10:57:14;;;;;;;1.50;0.70;;;;;;;;;;5063961;28;20240;-70
2023/06/13 10:59:40;;;;;;;0.95;0.70;;;;;;;;;;5063645;28;20373;-71
2023/06/13 11:02:15;;;;;;;4.68;1.05;;;;;;;;;;5063713;28;20024;-69
2023/06/13 11:04:49;;;;;;;1.58;0.68;;;;;;;;;;5063026;28;20024;-70
2023/06/13 11:07:20;;;;;;;1.17;0.80;;;;;;;;;;5064134;28;20051;-76
2023/06/13 11:10:04;;;;;;;2.50;0.90;;;;;;;;;;5063688;28;20017;-70
2023/06/13 11:12:30;;;;;;;4.65;0.90;;;;;;;;;;5063791;28;20029;-74
2023/06/13 11:15:05;;;;;;;1.67;1.00;;;;;;;;;;5063528;28;20110;-75
2023/06/13 11:17:30;;;;;;;3.08;0.85;;;;;;;;;;5063693;28;20021;-70
2023/06/13 11:19:56;;;;;;;3.33;0.65;;;;;;;;;;5062919;28;20104;-73
2023/06/13 11:22:22;;;;;;;1.13;0.70;;;;;;;;;;5062966;28;20040;-72
2023/06/13 11:24:48;;;;;;;1.92;0.93;;;;;;;;;;5060875;28;20040;-74
2023/06/13 11:27:16;;;;;;;2.13;1.27;;;;;;;;;;5052442;28;20058;-72
2023/06/13 11:29:43;;;;;;;1.15;0.65;;;;;;;;;;5053810;28;20087;-72
2023/06/13 11:32:09;;;;;;;1.17;0.80;;;;;;;;;;5042903;28;20029;-70
2023/06/13 11:35:00;;;;;;;1.40;0.88;;;;;;;;;;5055527;28;20202;-70
2023/06/13 11:37:44;;;;;;;1.50;0.98;;;;;;;;;;5061570;28;20321;-76
2023/06/13 11:40:25;;;;;;;1.30;0.80;;;;;;;;;;5063128;28;20071;-72
2023/06/13 11:42:51;;;;;;;2.25;0.90;;;;;;;;;;5063034;28;20044;-72
2023/06/13 11:45:17;;;;;;;35.45;1.38;;;;;;;;;;5062129;28;20043;-72
2023/06/13 11:47:45;;;;;;;3.50;0.80;;;;;;;;;;5062627;28;20052;-75
2023/06/13 11:50:11;;;;;;;1.08;0.65;;;;;;;;;;5062688;28;20060;-73
2023/06/13 11:52:36;;;;;;;1.30;0.88;;;;;;;;;;5062761;28;20045;-72
2023/06/13 11:55:16;;;;;;;1.38;0.98;;;;;;;;;;5062859;28;20024;-74
2023/06/13 11:57:50;;;;;;;2.90;0.88;;;;;;;;;;5062957;28;20101;-72
2023/06/13 12:00:16;;;;;;;2.97;0.93;;;;;;;;;;5062761;28;20025;-70
2023/06/13 12:02:42;;;;;;;1.40;1.00;;;;;;;;;;5062514;28;20036;-71
2023/06/13 12:05:10;;;;;;;1.02;0.63;;;;;;;;;;5061228;28;20025;-71
2023/06/13 12:07:36;;;;;;;0.88;0.70;;;;;;;;;;5062434;28;20032;-71
2023/06/13 12:10:02;;;;;;;4.10;0.63;;;;;;;;;;5054185;28;20190;-72
2023/06/13 12:12:28;;;;;;;0.80;0.60;;;;;;;;;;5061199;28;20052;-71
2023/06/13 12:14:54;;;;;;;1.33;0.70;;;;;;;;;;5061627;28;20070;-70
2023/06/13 12:17:20;;;;;;;0.93;0.75;;;;;;;;;;5062322;28;20450;-72
2023/06/13 12:19:45;;;;;;;2.35;0.70;;;;;;;;;;5061428;28;20028;-71
2023/06/13 12:22:13;;;;;;;0.70;0.60;;;;;;;;;;5061309;28;20029;-71
2023/06/13 12:24:38;;;;;;;0.75;0.57;;;;;;;;;;5061805;28;20032;-71
2023/06/13 12:27:04;;;;;;;2.80;0.82;;;;;;;;;;5061479;28;20036;-72
2023/06/13 12:29:31;;;;;;;1.58;0.80;;;;;;;;;;5061214;28;20229;-70
2023/06/13 12:31:59;;;;;;;1.20;0.75;;;;;;;;;;5061823;28;20374;-72
2023/06/13 12:34:33;;;;;;;0.95;0.60;;;;;;;;;;5060462;28;20053;-70
2023/06/13 12:37:07;;;;;;;0.77;0.68;;;;;;;;;;5061910;28;20037;-70
2023/06/13 12:39:33;;;;;;;1.85;0.63;;;;;;;;;;5061735;28;20040;-71
2023/06/13 12:42:08;;;;;;;1.50;0.77;;;;;;;;;;5060476;28;20021;-71
2023/06/13 12:44:34;;;;;;;1.40;0.73;;;;;;;;;;5061845;28;20083;-71
2023/06/13 12:47:04;;;;;;;3.80;0.70;;;;;;;;;;5061885;28;20263;-71
2023/06/13 12:49:37;;;;;;;1.23;0.63;;;;;;;;;;5062047;28;20351;-71
2023/06/13 12:52:04;;;;;;;0.43;0.43;;;;;;;;;;5061204;28;20375;-72
2023/06/13 12:54:33;;;;;;;1.88;0.60;;;;;;;;;;5060411;28;20029;-71
2023/06/13 12:57:01;;;;;;;3.75;1.00;;;;;;;;;;5061502;28;20036;-72
2023/06/13 12:59:40;;;;;;;1.23;0.70;;;;;;;;;;5061185;28;20058;-79
2023/06/13 13:02:12;;;;;;;1.65;0.50;;;;;;;;;;5061016;28;20047;-71
2023/06/13 13:04:39;;;;;;;1.33;0.70;;;;;;;;;;5061614;28;20029;-70
2023/06/13 13:07:06;;;;;;;1.08;0.68;;;;;;;;;;5061309;28;20123;-71
2023/06/13 13:09:32;;;;;;;0.57;0.52;;;;;;;;;;5061301;28;20099;-71
2023/06/13 13:11:58;;;;;;;0.85;0.50;;;;;;;;;;5061080;28;20039;-72
2023/06/13 13:14:25;;;;;;;11.88;0.63;;;;;;;;;;5061197;28;20070;-71
2023/06/13 13:16:51;;;;;;;0.68;0.50;;;;;;;;;;5061301;28;20031;-72
2023/06/13 13:19:18;;;;;;;1.65;0.50;;;;;;;;;;5061911;28;20025;-72
2023/06/13 13:21:43;;;;;;;0.45;0.40;;;;;;;;;;5061153;28;20048;-71
2023/06/13 13:24:09;;;;;;;0.85;0.40;;;;;;;;;;5060957;28;20040;-72
2023/06/13 13:26:35;;;;;;;0.40;0.40;;;;;;;;;;5061371;28;20037;-71
2023/06/13 13:29:02;;;;;;;0.30;0.30;;;;;;;;;;5059697;28;20021;-70
2023/06/13 13:31:29;;;;;;;1.40;0.60;;;;;;;;;;5060873;28;20321;-71
2023/06/13 13:33:56;;;;;;;0.28;0.28;;;;;;;;;;5060552;28;20092;-71
2023/06/13 13:36:23;;;;;;;0.98;0.57;;;;;;;;;;5060460;28;20029;-70
2023/06/13 13:38:49;;;;;;;0.57;0.38;;;;;;;;;;5059729;28;20080;-71
2023/06/13 13:41:17;;;;;;;0.60;0.50;;;;;;;;;;5060669;28;20393;-72
2023/06/13 13:43:43;;;;;;;0.65;0.50;;;;;;;;;;5060126;28;20063;-70
2023/06/13 13:46:09;;;;;;;0.68;0.40;;;;;;;;;;5060468;28;20033;-72
2023/06/13 13:48:38;;;;;;;1.52;0.30;;;;;;;;;;5060374;28;20029;-71
2023/06/13 13:51:06;;;;;;;2.67;0.50;;;;;;;;;;5060678;28;20045;-71
2023/06/13 13:53:33;;;;;;;0.28;0.28;;;;;;;;;;5060323;28;20098;-71
2023/06/13 13:56:01;;;;;;;0.35;0.32;;;;;;;;;;5060917;28;20474;-76
2023/06/13 13:58:27;;;;;;;1.92;0.30;;;;;;;;;;5060961;28;20033;-72
2023/06/13 14:00:52;;;;;;;0.25;0.25;;;;;;;;;;5045338;28;20248;-72
2023/06/13 14:03:18;;;;;;;1.75;0.43;;;;;;;;;;5040041;28;20336;-72
2023/06/13 14:05:43;;;;;;;0.40;0.40;;;;;;;;;;5040027;28;20309;-72
2023/06/13 14:08:10;;;;;;;4.70;0.40;;;;;;;;;;5040539;28;20017;-70
2023/06/13 14:10:35;;;;;;;0.45;0.30;;;;;;;;;;5040697;28;20044;-72
2023/06/13 14:13:01;;;;;;;0.50;0.50;;;;;;;;;;5040561;28;20025;-72
2023/06/13 14:15:26;;;;;;;2.28;0.47;;;;;;;;;;5044975;28;20117;-70
2023/06/13 14:17:52;;;;;;;0.40;0.35;;;;;;;;;;5060511;28;20032;-77
2023/06/13 14:20:17;;;;;;;2.30;0.63;;;;;;;;;;5060775;28;20482;-70
2023/06/13 14:22:43;;;;;;;5.45;0.50;;;;;;;;;;5051986;28;20033;-70
2023/06/13 14:25:09;;;;;;;0.40;0.40;;;;;;;;;;5040652;28;20272;-72
2023/06/13 14:27:34;;;;;;;0.38;0.25;;;;;;;;;;5040249;28;20221;-72
2023/06/13 14:30:00;;;;;;;1.55;0.40;;;;;;;;;;5039961;28;20096;-75
2023/06/13 14:32:26;;;;;;;0.30;0.30;;;;;;;;;;5057992;28;20096;-74
2023/06/13 14:34:52;;;;;;;0.57;0.40;;;;;;;;;;5060068;28;20112;-71
2023/06/13 14:37:17;;;;;;;1.25;0.47;;;;;;;;;;5059203;28;20033;-72
2023/06/13 14:39:45;;;;;;;0.95;0.40;;;;;;;;;;5059724;28;20036;-71
2023/06/13 14:42:10;;;;;;;0.40;0.40;;;;;;;;;;5060077;28;20029;-70
2023/06/13 14:44:36;;;;;;;1.88;0.50;;;;;;;;;;5059028;28;20036;-71